createdAt,value
2019-03-21T00:00:55.224Z,80.20
2019-03-21T00:03:25.425Z,80.32
2019-03-21T00:05:55.653Z,80.49
2019-03-21T00:08:25.862Z,80.72
2019-03-21T00:11:38.389Z,80.97
2019-03-21T00:14:35.261Z,81.23
2019-03-21T00:17:06.107Z,81.31
2019-03-21T00:19:37.405Z,81.28
2019-03-21T00:22:07.625Z,81.46
2019-03-21T00:24:38.125Z,81.34
2019-03-21T00:27:08.405Z,81.25
2019-03-21T00:29:38.618Z,81.31
2019-03-21T00:32:08.994Z,81.65
2019-03-21T00:34:39.202Z,81.54
2019-03-21T00:37:09.610Z,81.62
2019-03-21T00:39:39.821Z,81.50
2019-03-21T00:42:10.037Z,81.32
2019-03-21T00:44:40.317Z,81.14
2019-03-21T00:47:10.533Z,81.24
2019-03-21T00:49:40.753Z,81.38
2019-03-21T00:52:10.994Z,81.44
2019-03-21T00:54:41.201Z,81.33
2019-03-21T00:57:11.429Z,81.20
2019-03-21T00:59:41.733Z,81.15
2019-03-21T01:02:12.126Z,81.30
2019-03-21T01:04:42.411Z,81.24
2019-03-21T01:07:12.707Z,81.09
2019-03-21T01:09:42.920Z,80.97
2019-03-21T01:12:13.185Z,80.84
2019-03-21T01:14:43.397Z,80.94
2019-03-21T01:17:13.617Z,81.03
2019-03-21T01:19:43.824Z,81.03
2019-03-21T01:22:14.047Z,81.12
2019-03-21T01:24:44.254Z,81.34
2019-03-21T01:27:14.479Z,81.70
2019-03-21T01:29:44.683Z,81.84
2019-03-21T01:32:14.901Z,81.92
2019-03-21T01:34:45.126Z,81.77
2019-03-21T01:37:15.325Z,81.78
2019-03-21T01:39:45.789Z,81.88
2019-03-21T01:42:16.022Z,82.06
2019-03-21T01:44:46.236Z,82.58
2019-03-21T01:47:16.457Z,82.58
2019-03-21T01:49:47.654Z,82.42
2019-03-21T01:52:17.905Z,82.23
2019-03-21T01:54:48.064Z,82.13
2019-03-21T01:57:18.275Z,82.02
2019-03-21T01:59:48.489Z,81.96
2019-03-21T02:02:18.934Z,82.00
2019-03-21T02:04:49.162Z,81.91
2019-03-21T02:07:19.354Z,81.82
2019-03-21T02:09:49.818Z,81.87
2019-03-21T02:12:20.033Z,82.18
2019-03-21T02:14:52.338Z,82.11
2019-03-21T02:17:22.342Z,82.00
2019-03-21T02:19:52.542Z,82.05
2019-03-21T02:22:22.786Z,82.07
2019-03-21T02:24:52.974Z,82.16
2019-03-21T02:27:23.193Z,82.29
2019-03-21T02:29:53.392Z,82.54
2019-03-21T02:32:23.604Z,82.55
2019-03-21T02:34:53.854Z,82.51
2019-03-21T02:37:24.303Z,82.70
2019-03-21T02:39:59.763Z,82.70
2019-03-21T02:42:26.696Z,82.90
2019-03-21T02:45:08.382Z,82.93
2019-03-21T02:47:28.901Z,82.88
2019-03-21T02:49:59.124Z,82.89
2019-03-21T02:52:29.341Z,83.05
2019-03-21T02:54:59.561Z,82.92
2019-03-21T02:57:29.788Z,83.11
2019-03-21T03:00:00.478Z,83.16
2019-03-21T03:02:30.637Z,83.25
2019-03-21T03:05:01.002Z,83.32
2019-03-21T03:07:31.367Z,83.29
2019-03-21T03:10:01.620Z,83.24
2019-03-21T03:12:31.808Z,83.27
2019-03-21T03:15:02.068Z,83.36
2019-03-21T03:17:32.262Z,83.39
2019-03-21T03:20:02.474Z,83.35
2019-03-21T03:22:32.675Z,83.38
2019-03-21T03:25:03.195Z,83.37
2019-03-21T03:27:33.634Z,83.45
2019-03-21T03:30:03.998Z,83.40
2019-03-21T03:32:34.257Z,83.36
2019-03-21T03:35:04.844Z,83.26
2019-03-21T03:37:35.047Z,83.23
2019-03-21T03:40:06.854Z,83.34
2019-03-21T03:42:37.050Z,83.27
2019-03-21T03:45:10.158Z,83.41
2019-03-21T03:47:40.375Z,83.54
2019-03-21T03:50:11.021Z,83.83
2019-03-21T03:52:41.194Z,83.90
2019-03-21T03:55:12.258Z,83.88
2019-03-21T03:57:42.612Z,83.93
2019-03-21T04:00:15.442Z,83.98
2019-03-21T04:02:46.754Z,83.93
2019-03-21T04:05:17.144Z,83.93
2019-03-21T04:07:48.514Z,83.97
2019-03-21T04:10:30.332Z,83.94
2019-03-21T04:13:00.666Z,84.01
2019-03-21T04:15:30.871Z,84.19
2019-03-21T04:18:01.077Z,84.25
2019-03-21T04:20:32.455Z,84.41
2019-03-21T04:23:03.051Z,84.53
2019-03-21T04:25:39.521Z,84.41
2019-03-21T04:28:13.429Z,84.41
2019-03-21T04:30:44.500Z,84.40
2019-03-21T04:33:14.858Z,84.34
2019-03-21T04:35:45.454Z,84.32
2019-03-21T04:38:15.722Z,84.42
2019-03-21T04:40:45.917Z,84.31
2019-03-21T04:43:16.193Z,84.23
2019-03-21T04:45:46.495Z,84.22
2019-03-21T04:48:16.711Z,84.22
2019-03-21T04:50:46.915Z,84.10
2019-03-21T04:53:17.111Z,84.08
2019-03-21T04:55:47.474Z,84.12
2019-03-21T04:58:17.713Z,84.11
2019-03-21T05:00:50.518Z,84.26
2019-03-21T05:03:20.894Z,84.22
2019-03-21T05:05:51.095Z,84.27
2019-03-21T05:08:21.557Z,84.35
2019-03-21T05:10:51.779Z,84.45
2019-03-21T05:13:21.978Z,84.63
2019-03-21T05:15:52.208Z,84.68
2019-03-21T05:18:26.993Z,84.69
2019-03-21T05:20:57.499Z,84.55
2019-03-21T05:23:27.698Z,84.42
2019-03-21T05:25:57.933Z,84.39
2019-03-21T05:28:28.162Z,84.38
2019-03-21T05:31:04.080Z,84.25
2019-03-21T05:33:34.279Z,84.14
2019-03-21T05:36:05.539Z,84.16
2019-03-21T05:38:35.753Z,84.21
2019-03-21T05:41:05.972Z,84.32
2019-03-21T05:43:40.073Z,84.31
2019-03-21T05:46:11.234Z,84.28
2019-03-21T05:48:41.451Z,84.35
2019-03-21T05:51:11.666Z,84.33
2019-03-21T05:53:41.876Z,84.52
2019-03-21T05:56:12.108Z,84.48
2019-03-21T05:58:42.314Z,84.53
2019-03-21T06:01:13.786Z,84.50
2019-03-21T06:03:50.983Z,84.50
2019-03-21T06:06:28.317Z,84.55
2019-03-21T06:08:58.523Z,84.55
2019-03-21T06:11:28.825Z,84.76
2019-03-21T06:13:59.046Z,84.90
2019-03-21T06:16:37.317Z,84.93
2019-03-21T06:19:23.214Z,84.87
2019-03-21T06:22:18.354Z,84.86
2019-03-21T06:25:05.276Z,84.71
2019-03-21T06:27:35.463Z,84.73
2019-03-21T06:30:07.786Z,84.82
2019-03-21T06:32:38.058Z,84.87
2019-03-21T06:35:21.479Z,84.88
2019-03-21T06:37:52.046Z,84.94
2019-03-21T06:40:22.425Z,84.88
2019-03-21T06:42:52.646Z,84.91
2019-03-21T06:45:22.864Z,84.91
2019-03-21T06:47:53.386Z,84.87
2019-03-21T06:50:23.725Z,84.86
2019-03-21T06:52:54.197Z,84.82
2019-03-21T06:55:24.402Z,84.77
2019-03-21T06:57:54.625Z,84.67
2019-03-21T07:00:25.806Z,84.59
2019-03-21T07:02:56.098Z,84.54
2019-03-21T07:05:26.858Z,84.53
2019-03-21T07:07:57.097Z,84.47
2019-03-21T07:10:27.290Z,84.27
2019-03-21T07:12:57.515Z,84.21
2019-03-21T07:15:27.725Z,84.26
2019-03-21T07:17:57.930Z,83.96
2019-03-21T07:20:28.137Z,83.74
2019-03-21T07:22:58.620Z,83.66
2019-03-21T07:25:28.886Z,83.52
2019-03-21T07:27:59.094Z,83.44
2019-03-21T07:30:29.296Z,82.58
2019-03-21T07:32:59.517Z,82.58
2019-03-21T07:35:29.725Z,82.87
2019-03-21T07:37:59.939Z,82.79
2019-03-21T07:40:30.149Z,82.64
2019-03-21T07:43:01.322Z,82.62
2019-03-21T07:45:31.766Z,82.55
2019-03-21T07:48:01.978Z,82.49
2019-03-21T07:50:32.213Z,82.44
2019-03-21T07:53:02.412Z,82.01
2019-03-21T07:55:32.619Z,81.44
2019-03-21T07:58:02.825Z,81.28
2019-03-21T08:00:33.124Z,81.04
2019-03-21T08:03:03.356Z,80.93
2019-03-21T08:05:40.431Z,80.76
2019-03-21T08:08:06.550Z,80.73
2019-03-21T08:10:37.049Z,80.68
2019-03-21T08:13:07.268Z,80.39
2019-03-21T08:15:38.056Z,80.05
2019-03-21T08:18:08.328Z,79.51
2019-03-21T08:20:38.799Z,79.27
2019-03-21T08:23:09.089Z,79.36
2019-03-21T08:25:39.299Z,79.30
2019-03-21T08:28:10.238Z,78.68
2019-03-21T08:31:11.970Z,78.59
2019-03-21T08:33:42.184Z,78.52
2019-03-21T08:36:12.467Z,78.36
2019-03-21T08:38:43.051Z,78.26
2019-03-21T08:41:13.407Z,78.10
2019-03-21T08:43:43.690Z,78.15
2019-03-21T08:46:13.982Z,77.99
2019-03-21T08:48:44.166Z,76.99
2019-03-21T08:51:14.373Z,77.05
2019-03-21T08:53:44.571Z,76.89
2019-03-21T08:56:14.821Z,76.98
2019-03-21T08:58:45.058Z,76.65
2019-03-21T09:01:15.256Z,76.86
2019-03-21T09:03:46.434Z,76.72
2019-03-21T09:06:16.775Z,76.32
2019-03-21T09:08:46.995Z,76.34
2019-03-21T09:11:17.182Z,75.87
2019-03-21T09:13:47.397Z,75.63
2019-03-21T09:16:17.696Z,75.20
2019-03-21T09:18:47.893Z,74.93
2019-03-21T09:21:20.008Z,74.58
2019-03-21T09:23:50.031Z,72.98
2019-03-21T09:26:20.238Z,71.02
2019-03-21T09:28:50.534Z,71.14
2019-03-21T09:31:20.745Z,70.80
2019-03-21T09:33:50.945Z,69.91
2019-03-21T09:36:21.166Z,70.09
2019-03-21T09:38:51.391Z,69.82
2019-03-21T09:41:21.578Z,69.64
2019-03-21T09:43:51.791Z,69.01
2019-03-21T09:46:22.175Z,69.43
2019-03-21T09:48:52.381Z,68.39
2019-03-21T09:51:30.460Z,68.87
2019-03-21T09:53:55.870Z,68.63
2019-03-21T09:56:26.091Z,68.28
2019-03-21T09:58:56.565Z,67.04
2019-03-21T10:01:26.915Z,67.04
2019-03-21T10:03:57.105Z,65.97
2019-03-21T10:06:27.674Z,64.70
2019-03-21T10:08:57.886Z,64.95
2019-03-21T10:11:28.108Z,64.81
2019-03-21T10:13:58.325Z,63.93
2019-03-21T10:16:28.517Z,63.93
2019-03-21T10:18:58.727Z,64.39
2019-03-21T10:21:29.210Z,64.03
2019-03-21T10:23:59.402Z,63.95
2019-03-21T10:26:29.690Z,63.16
2019-03-21T10:29:00.132Z,62.59
2019-03-21T10:31:31.471Z,63.34
2019-03-21T10:34:01.686Z,63.92
2019-03-21T10:36:32.135Z,63.68
2019-03-21T10:39:02.700Z,64.13
2019-03-21T10:41:32.903Z,63.93
2019-03-21T10:44:03.140Z,63.56
2019-03-21T10:46:34.311Z,63.31
2019-03-21T10:49:05.627Z,62.79
2019-03-21T10:51:35.845Z,62.36
2019-03-21T10:54:06.840Z,62.15
2019-03-21T10:56:37.062Z,62.23
2019-03-21T10:59:07.271Z,60.92
2019-03-21T11:01:37.476Z,59.81
2019-03-21T11:04:07.679Z,59.37
2019-03-21T11:06:38.134Z,59.43
2019-03-21T11:09:10.046Z,58.11
2019-03-21T11:11:40.277Z,57.13
2019-03-21T11:14:10.510Z,57.19
2019-03-21T11:16:40.715Z,57.44
2019-03-21T11:19:11.010Z,57.23
2019-03-21T11:21:41.242Z,56.34
2019-03-21T11:24:11.456Z,55.11
2019-03-21T11:26:41.679Z,54.78
2019-03-21T11:29:11.894Z,54.95
2019-03-21T11:31:42.130Z,53.72
2019-03-21T11:34:12.357Z,53.74
2019-03-21T11:36:42.612Z,52.61
2019-03-21T11:39:12.960Z,52.80
2019-03-21T11:41:43.125Z,51.94
2019-03-21T11:44:13.351Z,52.29
2019-03-21T11:46:43.571Z,52.67
2019-03-21T11:49:13.805Z,53.54
2019-03-21T11:51:44.319Z,53.20
2019-03-21T11:54:14.530Z,54.03
2019-03-21T11:56:44.738Z,53.77
2019-03-21T11:59:15.128Z,54.21
2019-03-21T12:01:45.400Z,54.86
2019-03-21T12:04:15.637Z,54.13
2019-03-21T12:06:46.796Z,54.20
2019-03-21T12:09:17.002Z,54.34
2019-03-21T12:11:47.209Z,53.93
2019-03-21T12:14:17.419Z,53.61
2019-03-21T12:16:47.643Z,53.21
2019-03-21T12:19:17.870Z,53.69
2019-03-21T12:21:48.082Z,53.06
2019-03-21T12:24:18.487Z,52.76
2019-03-21T12:26:48.696Z,52.86
2019-03-21T12:29:18.921Z,52.70
2019-03-21T12:31:49.134Z,53.57
2019-03-21T12:34:19.363Z,53.45
2019-03-21T12:36:49.845Z,53.90
2019-03-21T12:39:20.322Z,52.68
2019-03-21T12:41:50.542Z,52.59
2019-03-21T12:44:20.766Z,51.85
2019-03-21T12:46:50.970Z,51.88
2019-03-21T12:49:24.289Z,51.72
2019-03-21T12:51:54.493Z,51.83
2019-03-21T12:54:24.704Z,52.12
2019-03-21T12:56:54.919Z,52.14
2019-03-21T12:59:25.126Z,51.82
2019-03-21T13:01:55.349Z,51.36
2019-03-21T13:04:25.751Z,51.25
2019-03-21T13:06:55.971Z,51.10
2019-03-21T13:09:26.179Z,51.14
2019-03-21T13:11:56.402Z,51.18
2019-03-21T13:14:27.596Z,51.27
2019-03-21T13:16:57.959Z,51.73
2019-03-21T13:19:28.176Z,51.92
2019-03-21T13:21:58.479Z,52.20
2019-03-21T13:24:28.701Z,52.65
2019-03-21T13:27:00.278Z,52.14
2019-03-21T13:29:30.638Z,52.27
2019-03-21T13:32:00.858Z,51.53
2019-03-21T13:34:32.284Z,51.36
2019-03-21T13:37:02.504Z,51.49
2019-03-21T13:39:33.855Z,51.60
2019-03-21T13:42:04.148Z,51.42
2019-03-21T13:44:34.380Z,51.13
2019-03-21T13:47:05.491Z,50.38
2019-03-21T13:49:35.733Z,50.24
2019-03-21T13:52:05.939Z,50.32
2019-03-21T13:54:37.776Z,50.75
2019-03-21T13:57:07.975Z,51.08
2019-03-21T13:59:38.268Z,50.96
2019-03-21T14:02:09.438Z,50.08
2019-03-21T14:04:39.698Z,50.32
2019-03-21T14:07:09.918Z,50.46
2019-03-21T14:09:40.130Z,50.43
2019-03-21T14:12:10.346Z,50.68
2019-03-21T14:14:40.576Z,50.75
2019-03-21T14:17:21.347Z,51.28
2019-03-21T14:19:42.690Z,51.29
2019-03-21T14:22:12.928Z,50.72
2019-03-21T14:24:43.121Z,51.18
2019-03-21T14:27:13.345Z,51.57
2019-03-21T14:29:43.550Z,51.18
2019-03-21T14:32:14.042Z,50.92
2019-03-21T14:34:44.258Z,51.04
2019-03-21T14:37:14.633Z,50.37
2019-03-21T14:39:44.830Z,51.11
2019-03-21T14:42:15.049Z,51.44
2019-03-21T14:44:45.253Z,50.47
2019-03-21T14:47:15.515Z,50.98
2019-03-21T14:49:45.710Z,51.23
2019-03-21T14:52:15.926Z,51.72
2019-03-21T14:54:46.421Z,51.30
2019-03-21T14:57:16.651Z,51.39
2019-03-21T14:59:46.864Z,50.57
2019-03-21T15:02:17.088Z,50.83
2019-03-21T15:04:47.322Z,51.06
2019-03-21T15:07:18.730Z,51.04
2019-03-21T15:09:49.026Z,50.95
2019-03-21T15:12:19.231Z,51.55
2019-03-21T15:14:49.444Z,51.70
2019-03-21T15:17:19.639Z,51.82
2019-03-21T15:19:49.859Z,52.27
2019-03-21T15:22:20.074Z,51.96
2019-03-21T15:24:50.292Z,51.73
2019-03-21T15:27:20.783Z,51.88
2019-03-21T15:29:51.836Z,51.19
2019-03-21T15:32:22.008Z,51.15
2019-03-21T15:34:52.221Z,51.27
2019-03-21T15:37:22.456Z,51.93
2019-03-21T15:39:52.676Z,51.52
2019-03-21T15:42:22.910Z,51.52
2019-03-21T15:44:53.143Z,51.80
2019-03-21T15:47:23.357Z,51.90
2019-03-21T15:49:53.596Z,52.27
2019-03-21T15:52:23.831Z,52.56
2019-03-21T15:54:54.371Z,52.51
2019-03-21T15:57:24.581Z,52.92
2019-03-21T15:59:54.832Z,53.40
2019-03-21T16:02:25.039Z,53.59
2019-03-21T16:04:55.291Z,53.31
2019-03-21T16:07:25.531Z,53.43
2019-03-21T16:09:55.742Z,54.05
2019-03-21T16:12:26.059Z,53.68
2019-03-21T16:14:56.263Z,53.89
2019-03-21T16:17:26.483Z,53.95
2019-03-21T16:19:56.694Z,54.35
2019-03-21T16:22:26.914Z,54.60
2019-03-21T16:24:57.110Z,55.00
2019-03-21T16:27:27.332Z,55.37
2019-03-21T16:29:57.542Z,55.55
2019-03-21T16:32:27.770Z,55.27
2019-03-21T16:34:57.976Z,55.56
2019-03-21T16:37:28.338Z,55.56
2019-03-21T16:39:58.610Z,55.78
2019-03-21T16:42:29.038Z,55.74
2019-03-21T16:44:59.235Z,55.83
2019-03-21T16:47:29.455Z,55.77
2019-03-21T16:49:59.655Z,56.12
2019-03-21T16:52:30.149Z,56.35
2019-03-21T16:55:00.458Z,56.38
2019-03-21T16:57:30.714Z,56.47
2019-03-21T17:00:00.932Z,56.48
2019-03-21T17:02:31.329Z,56.65
2019-03-21T17:05:01.568Z,56.90
2019-03-21T17:07:31.790Z,57.13
2019-03-21T17:10:01.997Z,57.43
2019-03-21T17:12:32.244Z,57.73
2019-03-21T17:15:02.473Z,58.05
2019-03-21T17:17:32.697Z,58.05
2019-03-21T17:20:03.881Z,58.51
2019-03-21T17:22:34.137Z,58.66
2019-03-21T17:25:06.193Z,58.88
2019-03-21T17:27:36.403Z,59.11
2019-03-21T17:30:07.819Z,59.23
2019-03-21T17:32:38.192Z,59.44
2019-03-21T17:35:08.486Z,59.55
2019-03-21T17:37:38.772Z,59.67
2019-03-21T17:40:09.882Z,59.80
2019-03-21T17:42:40.198Z,59.87
2019-03-21T17:45:12.644Z,60.08
2019-03-21T17:47:42.936Z,60.21
2019-03-21T17:50:13.966Z,60.44
2019-03-21T17:52:44.172Z,60.61
2019-03-21T17:55:14.649Z,60.87
2019-03-21T17:57:45.136Z,61.18
2019-03-21T18:00:16.679Z,61.39
2019-03-21T18:02:48.621Z,61.70
2019-03-21T18:05:18.975Z,62.06
2019-03-21T18:07:49.365Z,62.50
2019-03-21T18:10:27.478Z,62.74
2019-03-21T18:12:57.766Z,63.08
2019-03-21T18:15:28.126Z,63.34
2019-03-21T18:17:58.490Z,63.56
2019-03-21T18:20:29.077Z,63.96
2019-03-21T18:23:00.266Z,64.18
2019-03-21T18:25:30.491Z,64.45
2019-03-21T18:28:00.778Z,64.76
2019-03-21T18:30:31.067Z,65.13
2019-03-21T18:33:01.294Z,65.28
2019-03-21T18:35:31.504Z,65.54
2019-03-21T18:38:02.697Z,65.64
2019-03-21T18:40:32.895Z,66.93
2019-03-21T18:43:03.202Z,68.69
2019-03-21T18:45:33.402Z,70.13
2019-03-21T18:48:03.807Z,70.02
2019-03-21T18:50:34.084Z,70.89
2019-03-21T18:53:04.300Z,71.11
2019-03-21T18:55:34.514Z,71.91
2019-03-21T18:58:05.730Z,72.09
2019-03-21T19:00:35.955Z,72.25
2019-03-21T19:03:06.254Z,72.43
2019-03-21T19:05:36.510Z,72.84
2019-03-21T19:08:06.743Z,72.68
2019-03-21T19:10:37.107Z,73.16
2019-03-21T19:13:07.282Z,74.49
2019-03-21T19:15:37.562Z,74.49
2019-03-21T19:18:07.709Z,75.04
2019-03-21T19:20:38.157Z,75.31
2019-03-21T19:23:08.393Z,75.64
2019-03-21T19:25:38.605Z,76.10
2019-03-21T19:28:08.834Z,76.49
2019-03-21T19:30:39.052Z,76.82
2019-03-21T19:33:09.264Z,76.74
2019-03-21T19:35:39.488Z,76.80
2019-03-21T19:38:09.889Z,76.93
2019-03-21T19:40:40.089Z,77.22
2019-03-21T19:43:10.305Z,77.26
2019-03-21T19:45:40.514Z,77.07
2019-03-21T19:48:10.769Z,77.23
2019-03-21T19:50:41.022Z,77.32
2019-03-21T19:53:11.249Z,77.25
2019-03-21T19:55:41.462Z,77.40
2019-03-21T19:58:11.670Z,77.25
2019-03-21T20:00:42.111Z,77.20
2019-03-21T20:03:12.436Z,77.25
2019-03-21T20:05:42.781Z,77.30
2019-03-21T20:08:13.001Z,77.45
2019-03-21T20:10:43.198Z,77.49
2019-03-21T20:13:13.479Z,77.30
2019-03-21T20:15:43.763Z,77.09
2019-03-21T20:18:13.984Z,77.17
2019-03-21T20:20:44.195Z,77.46
2019-03-21T20:23:14.633Z,77.66
2019-03-21T20:25:44.910Z,78.23
2019-03-21T20:28:15.141Z,78.52
2019-03-21T20:30:45.337Z,78.53
2019-03-21T20:33:15.568Z,78.86
2019-03-21T20:35:45.848Z,78.89
2019-03-21T20:38:16.309Z,79.08
2019-03-21T20:40:46.794Z,79.51
2019-03-21T20:43:16.994Z,79.61
2019-03-21T20:45:47.369Z,79.89
2019-03-21T20:48:16.883Z,79.86
2019-03-21T20:50:47.103Z,79.66
2019-03-21T20:53:19.734Z,79.73
2019-03-21T20:55:53.634Z,79.93
2019-03-21T20:58:21.979Z,79.85
2019-03-21T21:00:52.525Z,79.63
2019-03-21T21:03:22.833Z,79.91
2019-03-21T21:05:53.055Z,80.08
2019-03-21T21:08:23.258Z,80.03
2019-03-21T21:10:53.545Z,79.98
2019-03-21T21:13:23.770Z,80.03
2019-03-21T21:15:54.030Z,80.48
2019-03-21T21:18:24.398Z,80.81
2019-03-21T21:20:54.623Z,80.94
2019-03-21T21:23:24.822Z,81.32
2019-03-21T21:26:05.057Z,81.76
2019-03-21T21:28:26.958Z,81.77
2019-03-21T21:30:57.174Z,81.62
2019-03-21T21:33:27.391Z,81.74
2019-03-21T21:35:57.605Z,81.66
2019-03-21T21:38:27.811Z,81.69
2019-03-21T21:40:58.024Z,81.88
2019-03-21T21:43:28.261Z,81.93
2019-03-21T21:45:58.463Z,82.04
2019-03-21T21:48:28.722Z,81.99
2019-03-21T21:50:58.921Z,82.08
2019-03-21T21:53:29.139Z,82.88
2019-03-21T21:55:59.350Z,82.92
2019-03-21T21:58:29.643Z,82.85
2019-03-21T22:00:59.855Z,82.78
2019-03-21T22:03:30.089Z,82.91
2019-03-21T22:06:00.304Z,82.96
2019-03-21T22:08:30.758Z,82.95
2019-03-21T22:11:01.243Z,82.59
2019-03-21T22:13:31.538Z,82.59
2019-03-21T22:16:01.758Z,82.79
2019-03-21T22:18:32.216Z,83.01
2019-03-21T22:21:02.654Z,83.09
2019-03-21T22:23:33.122Z,83.05
2019-03-21T22:26:03.323Z,83.02
2019-03-21T22:28:33.746Z,83.04
2019-03-21T22:31:04.023Z,83.05
2019-03-21T22:33:34.258Z,83.04
2019-03-21T22:36:06.554Z,83.20
2019-03-21T22:38:36.619Z,83.25
2019-03-21T22:41:06.870Z,83.27
2019-03-21T22:43:37.362Z,83.39
2019-03-21T22:46:07.562Z,83.69
2019-03-21T22:48:37.781Z,83.66
2019-03-21T22:51:07.998Z,83.66
2019-03-21T22:53:38.210Z,83.66
2019-03-21T22:56:08.465Z,83.62
2019-03-21T22:58:38.675Z,83.97
2019-03-21T23:01:09.351Z,84.02
2019-03-21T23:03:39.573Z,84.06
2019-03-21T23:06:10.019Z,84.00
2019-03-21T23:08:40.249Z,84.02
2019-03-21T23:11:10.483Z,84.13
2019-03-21T23:13:40.694Z,84.48
2019-03-21T23:16:10.910Z,84.53
2019-03-21T23:18:41.133Z,84.36
2019-03-21T23:21:11.357Z,84.30
2019-03-21T23:23:41.557Z,84.25
2019-03-21T23:26:11.790Z,84.18
2019-03-21T23:28:41.991Z,84.09
2019-03-21T23:31:12.212Z,84.37
2019-03-21T23:33:42.514Z,84.47
2019-03-21T23:36:12.814Z,84.51
2019-03-21T23:38:43.015Z,84.44
2019-03-21T23:41:13.490Z,84.53
2019-03-21T23:43:43.833Z,84.64
2019-03-21T23:46:14.208Z,84.62
2019-03-21T23:48:44.429Z,84.50
2019-03-21T23:51:14.710Z,84.50
2019-03-21T23:53:44.949Z,84.53
2019-03-21T23:56:15.150Z,84.59
2019-03-21T23:58:45.519Z,84.72
